createdAt,value
2023-06-10T00:00:08.985Z,77.49
2023-06-10T00:01:09.320Z,77.56
2023-06-10T00:02:01.645Z,77.48
2023-06-10T00:02:35.231Z,77.61
2023-06-10T00:03:10.042Z,77.62
2023-06-10T00:03:44.816Z,77.78
2023-06-10T00:04:18.481Z,77.78
2023-06-10T00:04:52.096Z,77.78
2023-06-10T00:05:25.662Z,77.90
2023-06-10T00:05:58.948Z,77.97
2023-06-10T00:06:38.458Z,77.97
2023-06-10T00:07:13.220Z,77.93
2023-06-10T00:07:47.619Z,78.12
2023-06-10T00:08:20.903Z,78.05
2023-06-10T00:08:54.902Z,78.17
2023-06-10T00:09:30.746Z,78.20
2023-06-10T00:10:06.558Z,78.22
2023-06-10T00:10:42.066Z,78.25
2023-06-10T00:11:18.473Z,78.35
2023-06-10T00:11:55.314Z,78.44
2023-06-10T00:12:32.504Z,78.64
2023-06-10T00:13:09.897Z,78.70
2023-06-10T00:13:44.070Z,79.08
2023-06-10T00:14:17.364Z,79.51
2023-06-10T00:14:54.837Z,79.55
2023-06-10T00:15:28.137Z,79.65
2023-06-10T00:16:01.597Z,79.86
2023-06-10T00:16:35.615Z,79.93
2023-06-10T00:17:12.152Z,80.09
2023-06-10T00:17:45.441Z,80.19
2023-06-10T00:18:18.629Z,80.35
2023-06-10T00:18:55.682Z,80.35
2023-06-10T00:19:31.317Z,80.40
2023-06-10T00:20:10.397Z,80.51
2023-06-10T00:20:43.919Z,80.55
2023-06-10T00:21:17.323Z,80.66
2023-06-10T00:21:53.196Z,80.83
2023-06-10T00:22:30.643Z,80.74
2023-06-10T00:23:04.059Z,80.75
2023-06-10T00:23:39.620Z,80.80
2023-06-10T00:24:13.583Z,80.91
2023-06-10T00:24:47.040Z,80.98
2023-06-10T00:25:20.321Z,81.22
2023-06-10T00:25:53.731Z,81.26
2023-06-10T00:26:27.450Z,81.45
2023-06-10T00:27:00.988Z,81.41
2023-06-10T00:27:36.503Z,81.59
2023-06-10T00:28:09.848Z,81.49
2023-06-10T00:28:43.144Z,81.44
2023-06-10T00:29:16.798Z,81.49
2023-06-10T00:29:50.321Z,81.45
2023-06-10T00:30:23.796Z,81.50
2023-06-10T00:30:58.771Z,81.42
2023-06-10T00:31:32.321Z,81.53
2023-06-10T00:32:06.521Z,81.53
2023-06-10T00:32:40.833Z,81.50
2023-06-10T00:33:14.197Z,81.51
2023-06-10T00:33:47.479Z,81.33
2023-06-10T00:34:20.792Z,81.40
2023-06-10T00:34:53.950Z,81.22
2023-06-10T00:35:27.317Z,81.34
2023-06-10T00:36:00.772Z,81.21
2023-06-10T00:36:37.194Z,81.06
2023-06-10T00:37:10.504Z,81.20
2023-06-10T00:37:43.724Z,81.14
2023-06-10T00:38:16.994Z,81.16
2023-06-10T00:38:50.278Z,81.23
2023-06-10T00:39:23.580Z,81.29
2023-06-10T00:39:57.207Z,81.27
2023-06-10T00:40:30.611Z,81.33
2023-06-10T00:41:05.513Z,81.34
2023-06-10T00:41:38.839Z,81.32
2023-06-10T00:42:12.125Z,81.22
2023-06-10T00:42:45.564Z,81.29
2023-06-10T00:43:19.027Z,81.20
2023-06-10T00:43:55.904Z,81.15
2023-06-10T00:44:29.341Z,81.09
2023-06-10T00:45:02.836Z,81.03
2023-06-10T00:45:36.666Z,81.05
2023-06-10T00:46:11.142Z,80.91
2023-06-10T00:46:45.314Z,80.98
2023-06-10T00:47:19.145Z,80.98
2023-06-10T00:47:52.678Z,80.85
2023-06-10T00:48:26.641Z,80.84
2023-06-10T00:49:00.109Z,80.74
2023-06-10T00:49:34.196Z,80.79
2023-06-10T00:50:08.397Z,80.84
2023-06-10T00:50:41.663Z,80.78
2023-06-10T00:51:17.303Z,80.73
2023-06-10T00:51:52.035Z,80.69
2023-06-10T00:52:28.691Z,80.66
2023-06-10T00:53:02.779Z,80.88
2023-06-10T00:53:42.691Z,80.82
2023-06-10T00:54:16.446Z,80.67
2023-06-10T00:54:49.892Z,80.66
2023-06-10T00:55:24.705Z,80.60
2023-06-10T00:55:58.446Z,80.62
2023-06-10T00:56:32.634Z,80.48
2023-06-10T00:57:07.122Z,80.39
2023-06-10T00:57:45.739Z,80.29
2023-06-10T00:58:19.699Z,80.20
2023-06-10T00:58:53.412Z,80.06
2023-06-10T00:59:26.737Z,79.87
2023-06-10T01:00:00.355Z,79.76
2023-06-10T01:00:36.967Z,79.50
2023-06-10T01:01:12.544Z,79.41
2023-06-10T01:01:48.548Z,79.14
2023-06-10T01:02:22.464Z,79.14
2023-06-10T01:02:56.582Z,79.13
2023-06-10T01:03:30.723Z,79.19
2023-06-10T01:04:04.954Z,79.04
2023-06-10T01:04:38.839Z,79.10
2023-06-10T01:05:13.327Z,78.94
2023-06-10T01:05:56.578Z,78.95
2023-06-10T01:06:51.748Z,79.18
2023-06-10T01:07:36.878Z,79.24
2023-06-10T01:08:35.922Z,79.35
2023-06-10T01:09:33.502Z,79.55
2023-06-10T01:10:16.981Z,79.75
2023-06-10T01:10:59.247Z,79.85
2023-06-10T01:11:48.056Z,80.04
2023-06-10T01:12:35.624Z,80.20
2023-06-10T01:13:14.981Z,80.32
2023-06-10T01:13:52.604Z,80.56
2023-06-10T01:14:26.962Z,80.52
2023-06-10T01:15:01.881Z,80.67
2023-06-10T01:15:36.633Z,80.78
2023-06-10T01:16:10.905Z,80.86
2023-06-10T01:16:46.973Z,80.82
2023-06-10T01:17:21.059Z,80.95
2023-06-10T01:17:56.443Z,80.87
2023-06-10T01:18:32.708Z,80.83
2023-06-10T01:19:06.161Z,80.90
2023-06-10T01:19:39.645Z,80.94
2023-06-10T01:20:13.467Z,80.88
2023-06-10T01:20:50.249Z,80.80
2023-06-10T01:21:25.877Z,80.91
2023-06-10T01:22:01.616Z,81.00
2023-06-10T01:22:37.928Z,81.10
2023-06-10T01:23:12.419Z,80.94
2023-06-10T01:23:45.803Z,81.11
2023-06-10T01:24:20.765Z,81.16
2023-06-10T01:24:54.350Z,81.20
2023-06-10T01:25:30.279Z,81.27
2023-06-10T01:26:10.094Z,81.14
2023-06-10T01:26:44.824Z,81.28
2023-06-10T01:27:21.137Z,81.22
2023-06-10T01:28:06.749Z,81.38
2023-06-10T01:28:49.135Z,81.17
2023-06-10T01:29:35.183Z,81.25
2023-06-10T01:30:17.303Z,81.34
2023-06-10T01:31:01.610Z,81.32
2023-06-10T01:31:53.385Z,81.22
2023-06-10T01:32:41.384Z,81.28
2023-06-10T01:33:19.084Z,81.29
2023-06-10T01:33:54.366Z,81.42
2023-06-10T01:34:28.507Z,81.28
2023-06-10T01:35:04.128Z,81.36
2023-06-10T01:35:39.791Z,81.49
2023-06-10T01:36:14.586Z,81.86
2023-06-10T01:36:50.897Z,81.78
2023-06-10T01:37:26.328Z,81.88
2023-06-10T01:38:01.652Z,81.91
2023-06-10T01:38:43.722Z,82.02
2023-06-10T01:39:18.778Z,82.22
2023-06-10T01:39:53.466Z,82.26
2023-06-10T01:40:27.921Z,82.42
2023-06-10T01:41:02.060Z,82.34
2023-06-10T01:41:36.614Z,82.37
2023-06-10T01:42:12.359Z,82.42
2023-06-10T01:42:45.732Z,82.58
2023-06-10T01:43:21.595Z,82.38
2023-06-10T01:43:56.010Z,82.50
2023-06-10T01:44:29.476Z,82.45
2023-06-10T01:45:02.907Z,82.34
2023-06-10T01:45:36.348Z,82.26
2023-06-10T01:46:09.814Z,82.20
2023-06-10T01:46:43.458Z,82.31
2023-06-10T01:47:19.036Z,82.27
2023-06-10T01:47:52.286Z,82.25
2023-06-10T01:48:25.810Z,82.25
2023-06-10T01:48:59.612Z,82.26
2023-06-10T01:50:45.291Z,82.11
2023-06-10T01:51:18.730Z,82.06
2023-06-10T01:51:52.030Z,82.14
2023-06-10T01:52:26.578Z,82.04
2023-06-10T01:53:01.704Z,81.90
2023-06-10T01:53:35.192Z,81.94
2023-06-10T01:54:08.522Z,81.85
2023-06-10T01:54:41.791Z,81.80
2023-06-10T01:55:15.057Z,81.84
2023-06-10T01:55:48.396Z,81.82
2023-06-10T01:56:21.819Z,81.75
2023-06-10T01:56:56.167Z,81.75
2023-06-10T01:57:29.596Z,81.69
2023-06-10T01:58:02.881Z,81.60
2023-06-10T01:58:36.230Z,81.45
2023-06-10T01:59:09.556Z,81.41
2023-06-10T01:59:45.529Z,81.41
2023-06-10T02:00:19.012Z,81.40
2023-06-10T02:00:52.442Z,81.33
2023-06-10T02:01:27.181Z,81.35
2023-06-10T02:02:01.015Z,81.27
2023-06-10T02:02:34.876Z,81.27
2023-06-10T02:03:08.399Z,81.27
2023-06-10T02:03:42.876Z,81.34
2023-06-10T02:04:16.333Z,81.27
2023-06-10T02:04:49.741Z,81.40
2023-06-10T02:05:23.148Z,81.43
2023-06-10T02:05:56.556Z,81.48
2023-06-10T02:06:30.035Z,81.42
2023-06-10T02:07:05.380Z,81.42
2023-06-10T02:07:39.337Z,81.59
2023-06-10T02:08:12.769Z,81.57
2023-06-10T02:08:46.097Z,81.72
2023-06-10T02:09:20.131Z,81.69
2023-06-10T02:09:53.496Z,81.74
2023-06-10T02:10:27.223Z,81.86
2023-06-10T02:11:00.450Z,81.76
2023-06-10T02:11:36.524Z,81.86
2023-06-10T02:12:11.673Z,81.90
2023-06-10T02:12:45.036Z,82.00
2023-06-10T02:13:18.340Z,82.07
2023-06-10T02:13:51.793Z,82.09
2023-06-10T02:14:25.666Z,82.13
2023-06-10T02:14:58.962Z,82.10
2023-06-10T02:15:32.329Z,82.18
2023-06-10T02:16:07.206Z,82.24
2023-06-10T02:16:40.982Z,82.27
2023-06-10T02:17:15.912Z,82.48
2023-06-10T02:17:52.005Z,82.42
2023-06-10T02:18:25.342Z,82.43
2023-06-10T02:18:59.101Z,82.34
2023-06-10T02:19:37.932Z,82.42
2023-06-10T02:20:12.169Z,82.34
2023-06-10T02:20:45.434Z,82.46
2023-06-10T02:21:18.700Z,82.53
2023-06-10T02:21:52.227Z,82.43
2023-06-10T02:22:25.568Z,82.53
2023-06-10T02:23:01.314Z,82.40
2023-06-10T02:23:36.444Z,82.43
2023-06-10T02:24:11.222Z,82.47
2023-06-10T02:24:44.593Z,82.45
2023-06-10T02:25:18.017Z,82.52
2023-06-10T02:25:51.245Z,82.53
2023-06-10T02:26:27.246Z,82.54
2023-06-10T02:27:01.769Z,82.58
2023-06-10T02:27:35.294Z,82.67
2023-06-10T02:28:09.083Z,82.77
2023-06-10T02:28:45.539Z,82.74
2023-06-10T02:29:19.584Z,82.67
2023-06-10T02:29:53.104Z,82.80
2023-06-10T02:30:26.722Z,82.96
2023-06-10T02:31:00.622Z,82.97
2023-06-10T02:31:36.751Z,83.03
2023-06-10T02:32:12.188Z,83.28
2023-06-10T02:32:49.514Z,83.28
2023-06-10T02:33:25.432Z,83.44
2023-06-10T02:33:59.098Z,84.07
2023-06-10T02:34:32.505Z,84.41
2023-06-10T02:35:06.943Z,84.14
2023-06-10T02:35:40.911Z,84.26
2023-06-10T02:36:14.632Z,84.44
2023-06-10T02:36:50.411Z,84.62
2023-06-10T02:37:23.697Z,84.81
2023-06-10T02:37:56.955Z,85.00
2023-06-10T02:38:30.461Z,85.09
2023-06-10T02:39:05.858Z,85.04
2023-06-10T02:39:39.353Z,85.36
2023-06-10T02:40:14.694Z,85.35
2023-06-10T02:40:50.441Z,85.39
2023-06-10T02:41:24.361Z,85.51
2023-06-10T02:41:58.597Z,85.50
2023-06-10T02:42:31.917Z,85.43
2023-06-10T02:43:08.736Z,85.55
2023-06-10T02:43:42.228Z,85.47
2023-06-10T02:44:15.557Z,85.38
2023-06-10T02:44:49.515Z,85.50
2023-06-10T02:45:27.926Z,85.42
2023-06-10T02:46:01.655Z,85.30
2023-06-10T02:46:35.351Z,85.24
2023-06-10T02:47:09.388Z,85.20
2023-06-10T02:47:43.666Z,85.23
2023-06-10T02:48:17.454Z,85.20
2023-06-10T02:48:53.379Z,85.17
2023-06-10T02:49:31.256Z,85.17
2023-06-10T02:50:05.947Z,85.05
2023-06-10T02:50:41.579Z,85.20
2023-06-10T02:51:31.730Z,85.24
2023-06-10T02:52:08.419Z,85.33
2023-06-10T02:52:41.994Z,85.27
2023-06-10T02:53:16.191Z,85.25
2023-06-10T02:53:52.226Z,85.51
2023-06-10T02:54:25.810Z,85.48
2023-06-10T02:54:59.374Z,85.47
2023-06-10T02:55:33.674Z,85.56
2023-06-10T02:56:08.537Z,85.82
2023-06-10T02:56:43.088Z,85.70
2023-06-10T02:57:21.038Z,85.67
2023-06-10T02:57:55.415Z,85.87
2023-06-10T02:58:29.226Z,85.93
2023-06-10T02:59:02.848Z,85.87
2023-06-10T02:59:37.053Z,85.99
2023-06-10T03:00:12.416Z,86.06
2023-06-10T03:00:46.371Z,86.09
2023-06-10T03:01:20.344Z,86.14
2023-06-10T03:02:07.404Z,86.05
2023-06-10T03:02:47.171Z,86.23
2023-06-10T03:03:21.489Z,86.19
2023-06-10T03:04:02.246Z,86.54
2023-06-10T03:04:35.921Z,86.70
2023-06-10T03:05:12.644Z,86.56
2023-06-10T03:05:47.242Z,86.72
2023-06-10T03:06:25.772Z,86.67
2023-06-10T03:07:01.823Z,86.67
2023-06-10T03:07:38.391Z,86.94
2023-06-10T03:08:11.661Z,86.96
2023-06-10T03:08:47.147Z,87.14
2023-06-10T03:09:22.248Z,86.94
2023-06-10T03:09:57.066Z,87.15
2023-06-10T03:10:30.345Z,87.54
2023-06-10T03:11:03.749Z,87.29
2023-06-10T03:11:37.385Z,87.26
2023-06-10T03:12:11.671Z,87.85
2023-06-10T03:12:48.342Z,87.66
2023-06-10T03:13:22.333Z,87.77
2023-06-10T03:13:56.538Z,87.94
2023-06-10T03:14:30.448Z,88.19
2023-06-10T03:15:05.225Z,88.02
2023-06-10T03:15:39.020Z,87.86
2023-06-10T03:16:13.885Z,87.86
2023-06-10T03:16:47.498Z,87.85
2023-06-10T03:17:21.570Z,87.88
2023-06-10T03:17:55.069Z,88.11
2023-06-10T03:18:29.300Z,88.37
2023-06-10T03:19:02.690Z,88.21
2023-06-10T03:19:39.213Z,88.74
2023-06-10T03:20:13.784Z,88.36
2023-06-10T03:20:47.545Z,88.35
2023-06-10T03:21:21.753Z,88.40
2023-06-10T03:22:10.441Z,88.38
2023-06-10T03:22:46.501Z,88.44
2023-06-10T03:23:19.869Z,88.73
2023-06-10T03:23:53.289Z,88.89
2023-06-10T03:24:26.582Z,88.78
2023-06-10T03:25:01.024Z,88.82
2023-06-10T03:25:34.767Z,88.60
2023-06-10T03:26:08.884Z,88.71
2023-06-10T03:26:43.742Z,88.72
2023-06-10T03:27:17.806Z,88.95
2023-06-10T03:27:52.404Z,89.18
2023-06-10T03:28:28.348Z,89.00
2023-06-10T03:29:01.730Z,89.17
2023-06-10T03:29:35.999Z,88.95
2023-06-10T03:30:11.178Z,88.86
2023-06-10T03:30:44.856Z,88.90
2023-06-10T03:31:18.223Z,89.19
2023-06-10T03:31:51.744Z,89.09
2023-06-10T03:32:25.287Z,88.91
2023-06-10T03:32:58.783Z,89.04
2023-06-10T03:33:32.649Z,89.35
2023-06-10T03:34:06.030Z,89.15
2023-06-10T03:34:39.879Z,89.38
2023-06-10T03:35:13.359Z,89.29
2023-06-10T03:35:47.255Z,89.41
2023-06-10T03:36:20.829Z,89.26
2023-06-10T03:36:54.418Z,89.35
2023-06-10T03:37:27.664Z,89.47
2023-06-10T03:38:01.122Z,89.48
2023-06-10T03:38:34.881Z,89.49
2023-06-10T03:39:08.138Z,89.64
2023-06-10T03:39:41.526Z,89.51
2023-06-10T03:40:15.171Z,89.64
2023-06-10T03:40:50.949Z,89.89
2023-06-10T03:41:24.780Z,89.64
2023-06-10T03:41:58.561Z,89.65
2023-06-10T03:42:32.279Z,89.79
2023-06-10T03:43:05.624Z,89.82
2023-06-10T03:43:41.940Z,89.86
2023-06-10T03:44:16.164Z,89.78
2023-06-10T03:44:49.473Z,89.82
2023-06-10T03:45:22.838Z,89.73
2023-06-10T03:45:56.335Z,89.89
2023-06-10T03:46:29.866Z,89.79
2023-06-10T03:47:03.847Z,89.72
2023-06-10T03:47:39.040Z,89.91
2023-06-10T03:48:14.697Z,89.71
2023-06-10T03:48:52.209Z,89.71
2023-06-10T03:49:28.004Z,89.81
2023-06-10T03:50:03.069Z,89.93
2023-06-10T03:50:37.572Z,89.88
2023-06-10T03:51:10.811Z,89.75
2023-06-10T03:51:44.366Z,90.03
2023-06-10T03:52:19.096Z,90.05
2023-06-10T03:52:53.133Z,90.00
2023-06-10T03:53:27.892Z,90.89
2023-06-10T03:54:01.452Z,90.36
2023-06-10T03:54:36.064Z,90.26
2023-06-10T03:55:09.878Z,90.31
2023-06-10T03:55:43.414Z,90.64
2023-06-10T03:56:16.712Z,90.58
2023-06-10T03:56:50.840Z,90.35
2023-06-10T03:57:24.078Z,90.51
2023-06-10T03:57:57.381Z,90.55
2023-06-10T03:58:30.740Z,90.59
2023-06-10T03:59:04.033Z,90.55
2023-06-10T03:59:37.384Z,90.35
2023-06-10T04:00:14.637Z,90.62
2023-06-10T04:00:50.946Z,90.77
2023-06-10T04:01:25.574Z,90.70
2023-06-10T04:01:58.790Z,90.61
2023-06-10T04:02:34.262Z,90.58
2023-06-10T04:03:10.550Z,90.64
2023-06-10T04:03:50.136Z,90.66
2023-06-10T04:04:24.730Z,90.64
2023-06-10T04:04:58.003Z,90.86
2023-06-10T04:05:31.578Z,90.69
2023-06-10T04:06:06.042Z,90.76
2023-06-10T04:06:39.666Z,90.63
2023-06-10T04:07:13.567Z,90.62
2023-06-10T04:07:47.320Z,90.77
2023-06-10T04:08:21.807Z,90.62
2023-06-10T04:08:55.442Z,90.51
2023-06-10T04:09:28.610Z,90.65
2023-06-10T04:10:01.978Z,90.57
2023-06-10T04:10:35.843Z,90.44
2023-06-10T04:11:09.115Z,90.45
2023-06-10T04:11:42.501Z,90.56
2023-06-10T04:12:15.846Z,90.32
2023-06-10T04:12:49.397Z,90.31
2023-06-10T04:13:22.914Z,90.29
2023-06-10T04:14:00.838Z,90.19
2023-06-10T04:14:37.577Z,90.13
2023-06-10T04:15:11.405Z,90.19
2023-06-10T04:15:45.345Z,90.27
2023-06-10T04:16:22.571Z,90.16
2023-06-10T04:16:56.546Z,90.10
2023-06-10T04:17:30.173Z,90.15
2023-06-10T04:18:03.829Z,90.17
2023-06-10T04:18:37.304Z,90.01
2023-06-10T04:19:12.615Z,90.02
2023-06-10T04:19:46.101Z,90.10
2023-06-10T04:20:19.653Z,90.08
2023-06-10T04:20:53.784Z,90.11
2023-06-10T04:21:27.586Z,89.92
2023-06-10T04:22:03.537Z,89.90
2023-06-10T04:22:37.710Z,89.83
2023-06-10T04:23:11.125Z,89.80
2023-06-10T04:23:44.534Z,90.03
2023-06-10T04:24:18.064Z,89.85
2023-06-10T04:24:51.916Z,90.08
2023-06-10T04:25:25.685Z,89.84
2023-06-10T04:26:00.741Z,89.97
2023-06-10T04:26:35.002Z,89.94
2023-06-10T04:27:08.216Z,89.94
2023-06-10T04:27:41.713Z,89.97
2023-06-10T04:28:15.647Z,89.89
2023-06-10T04:28:49.300Z,89.99
2023-06-10T04:29:22.683Z,89.87
2023-06-10T04:29:56.081Z,89.80
2023-06-10T04:30:29.374Z,89.82
2023-06-10T04:31:05.487Z,89.75
2023-06-10T04:31:39.225Z,89.74
2023-06-10T04:32:12.823Z,89.90
2023-06-10T04:32:46.135Z,89.87
2023-06-10T04:33:24.668Z,89.98
2023-06-10T04:33:57.995Z,89.95
2023-06-10T04:34:31.802Z,89.82
2023-06-10T04:35:07.072Z,89.80
2023-06-10T04:35:40.668Z,89.95
2023-06-10T04:36:15.838Z,90.06
2023-06-10T04:36:49.269Z,89.96
2023-06-10T04:37:22.664Z,89.85
2023-06-10T04:37:56.214Z,89.81
2023-06-10T04:38:29.784Z,89.93
2023-06-10T04:39:03.357Z,89.94
2023-06-10T04:39:39.411Z,89.79
2023-06-10T04:40:13.358Z,89.58
2023-06-10T04:40:47.583Z,89.77
2023-06-10T04:41:21.305Z,89.71
2023-06-10T04:41:54.736Z,89.71
2023-06-10T04:42:28.220Z,89.66
2023-06-10T04:43:01.608Z,89.68
2023-06-10T04:43:35.097Z,89.59
2023-06-10T04:44:08.646Z,89.65
2023-06-10T04:44:42.011Z,89.57
2023-06-10T04:45:15.388Z,89.62
2023-06-10T04:45:48.813Z,89.60
2023-06-10T04:46:22.438Z,89.56
2023-06-10T04:46:57.184Z,89.52
2023-06-10T04:47:34.404Z,89.45
2023-06-10T04:48:08.980Z,89.38
2023-06-10T04:48:44.804Z,89.24
2023-06-10T04:49:18.109Z,89.08
2023-06-10T04:49:52.869Z,88.93
2023-06-10T04:50:26.258Z,89.01
2023-06-10T04:51:00.363Z,88.91
2023-06-10T04:51:34.074Z,88.61
2023-06-10T04:52:09.110Z,88.80
2023-06-10T04:52:45.777Z,88.77
2023-06-10T04:53:19.671Z,88.78
2023-06-10T04:53:53.580Z,88.49
2023-06-10T04:54:27.342Z,88.44
2023-06-10T04:55:00.517Z,88.52
2023-06-10T04:55:35.383Z,88.42
2023-06-10T04:56:09.193Z,88.39
2023-06-10T04:56:42.437Z,88.42
2023-06-10T04:57:15.648Z,88.51
2023-06-10T04:57:50.319Z,88.34
2023-06-10T04:58:25.628Z,88.26
2023-06-10T04:58:59.261Z,88.29
2023-06-10T04:59:32.707Z,88.18
2023-06-10T05:00:07.439Z,88.16
2023-06-10T05:00:40.860Z,88.07
2023-06-10T05:01:14.069Z,88.01
2023-06-10T05:01:47.475Z,88.07
2023-06-10T05:02:21.090Z,87.92
2023-06-10T05:02:54.976Z,87.90
2023-06-10T05:03:28.342Z,87.81
2023-06-10T05:04:01.925Z,87.78
2023-06-10T05:04:35.326Z,87.70
2023-06-10T05:05:09.078Z,87.57
2023-06-10T05:05:42.748Z,87.54
2023-06-10T05:06:16.333Z,87.40
2023-06-10T05:06:49.702Z,87.40
2023-06-10T05:07:22.962Z,87.39
2023-06-10T05:07:56.193Z,87.48
2023-06-10T05:08:29.529Z,87.23
2023-06-10T05:09:02.832Z,87.37
2023-06-10T05:09:36.400Z,87.11
2023-06-10T05:10:10.133Z,86.91
2023-06-10T05:10:43.452Z,86.89
2023-06-10T05:11:16.757Z,86.91
2023-06-10T05:11:50.145Z,87.13
2023-06-10T05:12:23.679Z,87.22
2023-06-10T05:12:56.987Z,87.10
2023-06-10T05:13:31.038Z,86.70
2023-06-10T05:14:04.386Z,86.86
2023-06-10T05:14:37.662Z,86.98
2023-06-10T05:15:11.788Z,87.32
2023-06-10T05:15:45.964Z,87.40
2023-06-10T05:16:19.278Z,87.22
2023-06-10T05:16:52.683Z,87.21
2023-06-10T05:17:26.666Z,87.12
2023-06-10T05:18:00.135Z,87.05
2023-06-10T05:18:33.412Z,86.91
2023-06-10T05:19:08.387Z,86.85
2023-06-10T05:19:42.979Z,86.71
2023-06-10T05:20:16.697Z,86.67
2023-06-10T05:20:50.501Z,86.61
2023-06-10T05:21:23.688Z,86.15
2023-06-10T05:21:56.957Z,86.17
2023-06-10T05:22:30.260Z,85.95
2023-06-10T05:23:03.672Z,85.85
2023-06-10T05:23:37.003Z,85.73
2023-06-10T05:24:10.492Z,85.51
2023-06-10T05:24:45.057Z,85.40
2023-06-10T05:25:18.386Z,85.28
2023-06-10T05:25:52.045Z,85.36
2023-06-10T05:26:26.537Z,85.03
2023-06-10T05:26:59.811Z,85.02
2023-06-10T05:27:33.224Z,84.94
2023-06-10T05:28:07.642Z,84.73
2023-06-10T05:28:40.991Z,84.56
2023-06-10T05:29:14.251Z,84.39
2023-06-10T05:29:47.732Z,84.24
2023-06-10T05:30:21.174Z,84.02
2023-06-10T05:30:54.542Z,83.99
2023-06-10T05:31:27.803Z,83.90
2023-06-10T05:32:04.638Z,83.83
2023-06-10T05:32:38.168Z,83.58
2023-06-10T05:33:11.555Z,83.51
2023-06-10T05:33:45.112Z,83.54
2023-06-10T05:34:18.476Z,83.36
2023-06-10T05:34:51.815Z,83.31
2023-06-10T05:35:25.196Z,83.05
2023-06-10T05:35:58.520Z,83.18
2023-06-10T05:36:31.873Z,83.05
2023-06-10T05:37:05.540Z,83.20
2023-06-10T05:37:38.760Z,82.98
2023-06-10T05:38:12.133Z,83.05
2023-06-10T05:38:45.464Z,83.08
2023-06-10T05:39:18.825Z,83.13
2023-06-10T05:39:52.398Z,82.39
2023-06-10T05:40:25.671Z,82.26
2023-06-10T05:41:00.286Z,82.20
2023-06-10T05:41:33.869Z,82.44
2023-06-10T05:42:08.435Z,82.26
2023-06-10T05:42:41.807Z,82.06
2023-06-10T05:43:15.553Z,82.28
2023-06-10T05:43:48.817Z,82.37
2023-06-10T05:44:22.287Z,81.99
2023-06-10T05:44:55.818Z,81.64
2023-06-10T05:45:29.139Z,81.66
2023-06-10T05:46:02.484Z,81.57
2023-06-10T05:46:35.922Z,81.95
2023-06-10T05:47:09.100Z,82.22
2023-06-10T05:47:42.439Z,82.39
2023-06-10T05:48:15.812Z,82.19
2023-06-10T05:48:49.147Z,82.12
2023-06-10T05:49:22.506Z,81.92
2023-06-10T05:49:55.820Z,81.55
2023-06-10T05:50:29.142Z,81.48
2023-06-10T05:51:02.528Z,81.41
2023-06-10T05:51:36.035Z,81.21
2023-06-10T05:52:09.241Z,80.57
2023-06-10T05:52:42.557Z,80.61
2023-06-10T05:53:16.714Z,80.46
2023-06-10T05:53:50.142Z,79.97
2023-06-10T05:54:23.433Z,80.16
2023-06-10T05:54:57.278Z,80.29
2023-06-10T05:55:30.592Z,80.19
2023-06-10T05:56:03.901Z,80.25
2023-06-10T05:56:37.175Z,80.12
2023-06-10T05:57:11.585Z,80.22
2023-06-10T05:57:44.837Z,80.04
2023-06-10T05:58:18.097Z,80.02
2023-06-10T05:58:51.301Z,79.82
2023-06-10T05:59:24.867Z,79.70
2023-06-10T05:59:58.119Z,79.45
2023-06-10T06:00:31.475Z,79.39
2023-06-10T06:01:04.897Z,79.01
2023-06-10T06:01:38.275Z,78.61
2023-06-10T06:02:11.575Z,78.36
2023-06-10T06:02:45.009Z,78.68
2023-06-10T06:03:19.033Z,78.82
2023-06-10T06:03:52.354Z,78.91
2023-06-10T06:04:25.615Z,78.77
2023-06-10T06:04:58.850Z,78.75
2023-06-10T06:05:36.379Z,78.59
2023-06-10T06:06:09.750Z,78.39
2023-06-10T06:06:43.149Z,78.07
2023-06-10T06:07:16.536Z,78.39
2023-06-10T06:07:49.830Z,78.36
2023-06-10T06:08:23.301Z,78.38
2023-06-10T06:08:56.541Z,78.42
2023-06-10T06:09:29.736Z,78.27
2023-06-10T06:10:02.953Z,78.28
2023-06-10T06:10:39.118Z,78.26
2023-06-10T06:11:12.323Z,78.14
2023-06-10T06:11:45.871Z,78.15
2023-06-10T06:12:19.151Z,78.00
2023-06-10T06:12:52.428Z,78.12
2023-06-10T06:13:25.809Z,78.01
2023-06-10T06:13:59.147Z,78.00
2023-06-10T06:14:33.639Z,78.05
2023-06-10T06:15:09.633Z,77.88
2023-06-10T06:15:43.257Z,77.60
2023-06-10T06:16:16.729Z,77.30
2023-06-10T06:16:50.065Z,77.07
2023-06-10T06:17:23.495Z,76.86
2023-06-10T06:17:57.690Z,76.65
2023-06-10T06:18:30.983Z,76.75
2023-06-10T06:19:04.229Z,76.69
2023-06-10T06:19:37.513Z,76.59
2023-06-10T06:20:11.185Z,76.52
2023-06-10T06:20:44.490Z,76.17
2023-06-10T06:21:17.915Z,76.24
2023-06-10T06:21:51.202Z,76.22
2023-06-10T06:22:24.537Z,76.28
2023-06-10T06:22:57.882Z,76.07
2023-06-10T06:23:31.758Z,75.79
2023-06-10T06:24:05.305Z,75.96
2023-06-10T06:24:38.867Z,75.88
2023-06-10T06:25:12.583Z,75.45
2023-06-10T06:25:46.211Z,75.49
2023-06-10T06:26:19.722Z,75.50
2023-06-10T06:26:53.103Z,75.37
2023-06-10T06:27:26.372Z,75.25
2023-06-10T06:27:59.783Z,75.29
2023-06-10T06:28:33.018Z,75.27
2023-06-10T06:29:06.301Z,75.35
2023-06-10T06:29:39.564Z,74.85
2023-06-10T06:30:13.462Z,74.91
2023-06-10T06:30:46.911Z,75.33
2023-06-10T06:31:20.260Z,75.28
2023-06-10T06:31:53.663Z,75.15
2023-06-10T06:32:28.828Z,75.15
2023-06-10T06:33:02.760Z,74.88
2023-06-10T06:33:36.144Z,74.70
2023-06-10T06:34:09.382Z,74.84
2023-06-10T06:34:42.804Z,74.48
2023-06-10T06:35:16.071Z,74.30
2023-06-10T06:35:49.431Z,74.05
2023-06-10T06:36:22.873Z,73.48
2023-06-10T06:36:56.192Z,73.13
2023-06-10T06:37:30.063Z,73.29
2023-06-10T06:38:20.761Z,73.53
2023-06-10T06:38:56.199Z,73.56
2023-06-10T06:39:30.380Z,73.41
2023-06-10T06:40:05.225Z,73.36
2023-06-10T06:40:38.604Z,73.08
2023-06-10T06:41:11.869Z,72.74
2023-06-10T06:41:45.100Z,72.58
2023-06-10T06:42:18.660Z,72.48
2023-06-10T06:43:03.875Z,72.29
2023-06-10T06:43:57.587Z,72.39
2023-06-10T06:44:31.974Z,72.33
2023-06-10T06:45:05.763Z,72.18
2023-06-10T06:45:39.021Z,71.97
2023-06-10T06:46:13.783Z,71.52
2023-06-10T06:46:48.375Z,71.34
2023-06-10T06:47:21.730Z,71.41
2023-06-10T06:47:55.240Z,71.38
2023-06-10T06:48:28.660Z,71.48
2023-06-10T06:49:02.048Z,71.43
2023-06-10T06:49:35.580Z,71.27
2023-06-10T06:50:09.266Z,71.28
2023-06-10T06:50:43.351Z,71.18
2023-06-10T06:51:16.660Z,71.35
2023-06-10T06:51:49.903Z,71.29
2023-06-10T06:52:23.686Z,71.28
2023-06-10T06:52:57.095Z,71.27
2023-06-10T06:53:32.083Z,71.22
2023-06-10T06:54:07.181Z,71.06
2023-06-10T06:54:40.845Z,70.86
2023-06-10T06:55:14.205Z,70.99
2023-06-10T06:55:47.545Z,70.95
2023-06-10T06:56:20.899Z,71.29
2023-06-10T06:56:54.263Z,71.22
2023-06-10T06:57:27.612Z,71.31
2023-06-10T06:58:04.156Z,71.45
2023-06-10T06:58:37.417Z,71.43
2023-06-10T06:59:11.345Z,71.44
2023-06-10T06:59:44.667Z,71.45
2023-06-10T07:00:18.362Z,71.43
2023-06-10T07:00:51.686Z,71.59
2023-06-10T07:01:25.050Z,71.65
2023-06-10T07:01:58.324Z,71.43
2023-06-10T07:02:33.455Z,71.25
2023-06-10T07:03:06.896Z,71.43
2023-06-10T07:03:40.238Z,71.24
2023-06-10T07:04:15.661Z,71.41
2023-06-10T07:04:50.981Z,71.30
2023-06-10T07:05:27.550Z,71.44
2023-06-10T07:06:00.961Z,71.45
2023-06-10T07:06:36.970Z,71.52
2023-06-10T07:07:11.836Z,71.36
2023-06-10T07:07:45.400Z,71.38
2023-06-10T07:08:18.692Z,71.20
2023-06-10T07:08:52.613Z,71.17
2023-06-10T07:09:25.865Z,71.22
2023-06-10T07:09:59.151Z,71.18
2023-06-10T07:10:32.488Z,71.12
2023-06-10T07:11:05.847Z,71.46
2023-06-10T07:11:39.155Z,71.58
2023-06-10T07:12:12.421Z,71.47
2023-06-10T07:12:45.626Z,71.41
2023-06-10T07:13:18.899Z,71.54
2023-06-10T07:13:52.142Z,71.43
2023-06-10T07:14:25.522Z,71.33
2023-06-10T07:14:58.800Z,71.32
2023-06-10T07:15:32.190Z,71.31
2023-06-10T07:16:05.425Z,71.23
2023-06-10T07:16:38.925Z,71.17
2023-06-10T07:17:12.354Z,71.28
2023-06-10T07:17:46.206Z,71.51
2023-06-10T07:18:19.683Z,71.63
2023-06-10T07:18:54.164Z,71.89
2023-06-10T07:19:27.476Z,71.93
2023-06-10T07:20:00.906Z,71.96
2023-06-10T07:20:34.445Z,72.04
2023-06-10T07:21:07.810Z,71.85
2023-06-10T07:21:41.272Z,72.14
2023-06-10T07:22:15.129Z,72.06
2023-06-10T07:22:48.469Z,71.51
2023-06-10T07:23:21.744Z,71.64
2023-06-10T07:23:55.207Z,71.72
2023-06-10T07:24:28.545Z,71.82
2023-06-10T07:25:01.993Z,71.81
2023-06-10T07:25:35.503Z,71.82
2023-06-10T07:26:09.118Z,71.67
2023-06-10T07:27:02.519Z,71.60